createdAt,value
2017-10-15T00:00:42.663Z,51.30
2017-10-15T00:03:08.935Z,54.23
2017-10-15T00:05:35.189Z,60.70
2017-10-15T00:08:02.287Z,55.73
2017-10-15T00:10:28.602Z,55.07
2017-10-15T00:12:54.871Z,59.10
2017-10-15T00:15:21.212Z,79.37
2017-10-15T00:17:47.507Z,61.20
2017-10-15T00:20:13.762Z,51.53
2017-10-15T00:22:40.810Z,66.50
2017-10-15T00:25:07.835Z,58.40
2017-10-15T00:27:34.106Z,70.03
2017-10-15T00:30:01.138Z,60.87
2017-10-15T00:32:27.425Z,62.30
2017-10-15T00:34:53.702Z,62.20
2017-10-15T00:37:20.006Z,54.33
2017-10-15T00:39:46.274Z,53.90
2017-10-15T00:42:12.800Z,67.83
2017-10-15T00:44:39.100Z,47.47
2017-10-15T00:47:05.368Z,50.43
2017-10-15T00:49:31.684Z,52.57
2017-10-15T00:51:58.010Z,59.60
2017-10-15T00:54:24.295Z,57.67
2017-10-15T00:56:51.308Z,61.33
2017-10-15T00:59:17.651Z,51.37
2017-10-15T01:01:44.012Z,53.53
2017-10-15T01:04:11.050Z,61.87
2017-10-15T01:06:37.406Z,53.53
2017-10-15T01:09:04.457Z,62.43
2017-10-15T01:11:30.765Z,54.07
2017-10-15T01:13:57.078Z,53.73
2017-10-15T01:16:23.381Z,49.23
2017-10-15T01:18:50.411Z,48.93
2017-10-15T01:21:16.736Z,50.17
2017-10-15T01:23:43.078Z,60.87
2017-10-15T01:26:09.358Z,55.90
2017-10-15T01:28:36.404Z,60.70
2017-10-15T01:31:02.677Z,54.73
2017-10-15T01:33:28.963Z,62.87
2017-10-15T01:35:55.989Z,63.97
2017-10-15T01:38:22.271Z,69.23
2017-10-15T01:40:48.531Z,54.03
2017-10-15T01:43:15.090Z,58.03
2017-10-15T01:45:41.363Z,55.07
2017-10-15T01:48:07.610Z,57.03
2017-10-15T01:50:33.919Z,65.07
2017-10-15T01:53:01.662Z,58.83
2017-10-15T01:55:27.964Z,67.70
2017-10-15T01:57:54.995Z,61.73
2017-10-15T02:00:21.258Z,52.00
2017-10-15T02:02:48.255Z,68.13
2017-10-15T02:05:14.558Z,59.60
2017-10-15T02:07:40.826Z,55.00
2017-10-15T02:10:07.117Z,61.80
2017-10-15T02:12:34.184Z,63.17
2017-10-15T02:15:00.484Z,58.73
2017-10-15T02:17:26.759Z,59.57
2017-10-15T02:19:53.067Z,65.40
2017-10-15T02:22:20.071Z,57.93
2017-10-15T02:24:46.345Z,57.80
2017-10-15T02:27:12.604Z,62.53
2017-10-15T02:29:38.893Z,65.93
2017-10-15T02:32:05.132Z,62.73
2017-10-15T02:34:31.430Z,67.33
2017-10-15T02:36:57.688Z,60.37
2017-10-15T02:39:23.941Z,63.50
2017-10-15T02:41:50.437Z,64.13
2017-10-15T02:44:16.877Z,69.07
2017-10-15T02:46:43.133Z,64.10
2017-10-15T02:49:09.477Z,56.13
2017-10-15T02:51:35.802Z,59.27
2017-10-15T02:54:02.088Z,61.50
2017-10-15T02:56:28.379Z,69.90
2017-10-15T02:58:54.681Z,58.17
2017-10-15T03:01:21.667Z,61.40
2017-10-15T03:03:47.954Z,61.23
2017-10-15T03:06:14.951Z,76.50
2017-10-15T03:08:41.215Z,58.40
2017-10-15T03:11:08.990Z,61.00
2017-10-15T03:13:35.242Z,60.50
2017-10-15T03:16:02.267Z,58.37
2017-10-15T03:18:30.063Z,50.60
2017-10-15T03:20:57.077Z,45.07
2017-10-15T03:23:23.331Z,49.00
2017-10-15T03:25:49.636Z,46.70
2017-10-15T03:28:15.911Z,45.30
2017-10-15T03:30:42.196Z,47.07
2017-10-15T03:33:08.495Z,48.43
2017-10-15T03:35:35.495Z,51.90
2017-10-15T03:38:01.862Z,44.47
2017-10-15T03:40:28.255Z,41.83
2017-10-15T03:42:54.545Z,42.93
2017-10-15T03:45:21.642Z,44.97
2017-10-15T03:47:47.908Z,44.17
2017-10-15T03:50:14.181Z,39.87
2017-10-15T03:52:40.422Z,43.40
2017-10-15T03:55:07.455Z,48.90
2017-10-15T03:57:33.767Z,47.30
2017-10-15T04:00:00.058Z,47.07
2017-10-15T04:02:26.361Z,51.40
2017-10-15T04:04:54.106Z,44.47
2017-10-15T04:07:20.387Z,47.40
2017-10-15T04:09:47.484Z,43.00
2017-10-15T04:12:13.759Z,45.07
2017-10-15T04:14:40.038Z,48.03
2017-10-15T04:17:13.514Z,45.73
2017-10-15T04:19:40.529Z,45.87
2017-10-15T04:22:06.818Z,45.80
2017-10-15T04:24:33.863Z,44.93
2017-10-15T04:27:00.132Z,46.07
2017-10-15T04:29:26.427Z,47.30
2017-10-15T04:31:53.508Z,52.17
2017-10-15T04:34:19.763Z,49.13
2017-10-15T04:36:46.025Z,58.03
2017-10-15T04:39:12.319Z,50.47
2017-10-15T04:41:38.601Z,53.90
2017-10-15T04:44:04.874Z,54.17
2017-10-15T04:46:31.356Z,43.67
2017-10-15T04:48:57.610Z,49.10
2017-10-15T04:51:23.866Z,49.90
2017-10-15T04:53:50.915Z,48.70
2017-10-15T04:56:17.959Z,50.53
2017-10-15T04:58:44.988Z,51.17
2017-10-15T05:01:11.315Z,45.03
2017-10-15T05:03:37.594Z,49.30
2017-10-15T05:06:04.631Z,47.50
2017-10-15T05:08:32.405Z,50.80
2017-10-15T05:10:59.410Z,49.93
2017-10-15T05:13:25.683Z,53.70
2017-10-15T05:15:51.983Z,53.37
2017-10-15T05:18:18.259Z,51.40
2017-10-15T05:20:45.320Z,59.03
2017-10-15T05:23:11.611Z,59.93
2017-10-15T05:25:37.879Z,55.93
2017-10-15T05:28:05.640Z,58.40
2017-10-15T05:30:31.934Z,60.17
2017-10-15T05:32:58.194Z,58.40
2017-10-15T05:35:24.501Z,63.27
2017-10-15T05:37:50.793Z,63.70
2017-10-15T05:40:18.570Z,67.03
2017-10-15T05:42:44.842Z,61.90
2017-10-15T05:45:11.134Z,61.77
2017-10-15T05:47:37.540Z,63.07
2017-10-15T05:50:03.863Z,65.07
2017-10-15T05:52:30.178Z,62.93
2017-10-15T05:54:57.172Z,62.50
2017-10-15T05:57:23.443Z,63.83
2017-10-15T05:59:50.491Z,63.13
2017-10-15T06:02:17.534Z,63.30
2017-10-15T06:04:45.296Z,66.90
2017-10-15T06:07:11.602Z,57.67
2017-10-15T06:09:37.886Z,63.80
2017-10-15T06:12:04.920Z,73.40
2017-10-15T06:14:31.234Z,67.17
2017-10-15T06:16:57.515Z,65.10
2017-10-15T06:19:23.794Z,57.83
2017-10-15T06:21:50.150Z,55.07
2017-10-15T06:24:16.448Z,62.90
2017-10-15T06:26:43.443Z,61.40
2017-10-15T06:29:09.831Z,54.80
2017-10-15T06:31:36.838Z,52.70
2017-10-15T06:34:03.097Z,55.53
2017-10-15T06:36:29.390Z,47.63
2017-10-15T06:38:55.667Z,46.47
2017-10-15T06:41:22.714Z,43.63
2017-10-15T06:43:48.974Z,46.67
2017-10-15T06:46:15.994Z,44.63
2017-10-15T06:48:42.572Z,48.37
2017-10-15T06:51:09.609Z,41.77
2017-10-15T06:53:36.657Z,44.27
2017-10-15T06:56:02.931Z,40.70
2017-10-15T06:58:29.248Z,45.73
2017-10-15T07:00:56.255Z,41.67
2017-10-15T07:03:22.528Z,49.73
2017-10-15T07:05:48.875Z,44.20
2017-10-15T07:08:15.916Z,42.37
2017-10-15T07:10:43.663Z,49.63
2017-10-15T07:13:09.947Z,48.83
2017-10-15T07:15:36.228Z,44.07
2017-10-15T07:18:02.503Z,44.93
2017-10-15T07:20:28.804Z,42.23
2017-10-15T07:22:55.071Z,43.20
2017-10-15T07:25:22.079Z,43.10
2017-10-15T07:27:48.386Z,45.53
2017-10-15T07:30:14.665Z,42.43
2017-10-15T07:32:40.959Z,42.53
2017-10-15T07:35:07.247Z,51.47
2017-10-15T07:37:33.523Z,51.63
2017-10-15T07:39:59.810Z,46.07
2017-10-15T07:42:26.173Z,47.63
2017-10-15T07:44:52.475Z,46.20
2017-10-15T07:47:18.738Z,53.50
2017-10-15T07:49:45.270Z,49.67
2017-10-15T07:52:11.561Z,59.80
2017-10-15T07:54:37.855Z,45.50
2017-10-15T07:57:04.150Z,42.83
2017-10-15T07:59:30.403Z,49.13
2017-10-15T08:01:56.676Z,49.70
2017-10-15T08:04:23.707Z,54.70
2017-10-15T08:06:49.972Z,56.00
2017-10-15T08:09:16.352Z,59.60
2017-10-15T08:11:42.787Z,50.97
2017-10-15T08:14:09.087Z,46.00
2017-10-15T08:16:36.170Z,53.30
2017-10-15T08:19:02.494Z,49.77
2017-10-15T08:21:28.779Z,64.13
2017-10-15T08:23:55.044Z,59.20
2017-10-15T08:26:21.370Z,50.70
2017-10-15T08:28:47.654Z,54.23
2017-10-15T08:31:14.658Z,60.30
2017-10-15T08:33:41.728Z,55.30
2017-10-15T08:36:08.211Z,66.80
2017-10-15T08:38:35.363Z,56.00
2017-10-15T08:41:01.623Z,50.20
2017-10-15T08:43:27.906Z,58.93
2017-10-15T08:45:54.306Z,58.70
2017-10-15T08:48:20.650Z,69.00
2017-10-15T08:50:47.937Z,58.27
2017-10-15T08:53:14.211Z,66.97
2017-10-15T08:55:40.503Z,63.63
2017-10-15T08:58:06.755Z,64.50
2017-10-15T09:00:33.053Z,56.20
2017-10-15T09:03:00.087Z,55.80
2017-10-15T09:05:26.498Z,56.63
2017-10-15T09:07:53.549Z,59.13
2017-10-15T09:10:19.845Z,61.80
2017-10-15T09:12:46.873Z,56.53
2017-10-15T09:15:13.145Z,53.53
2017-10-15T09:17:39.456Z,61.93
2017-10-15T09:20:06.533Z,63.40
2017-10-15T09:22:32.816Z,55.60
2017-10-15T09:25:00.680Z,65.57
2017-10-15T09:27:26.926Z,59.07
2017-10-15T09:29:53.187Z,55.90
2017-10-15T09:32:20.223Z,58.57
2017-10-15T09:34:47.987Z,68.73
2017-10-15T09:37:14.286Z,56.97
2017-10-15T09:39:40.563Z,56.13
2017-10-15T09:42:07.611Z,61.57
2017-10-15T09:44:33.912Z,69.00
2017-10-15T09:47:00.220Z,64.47
2017-10-15T09:49:27.231Z,63.30
2017-10-15T09:51:53.712Z,75.17
2017-10-15T09:54:20.029Z,57.80
2017-10-15T09:56:47.072Z,63.47
2017-10-15T09:59:13.338Z,76.80
2017-10-15T10:01:40.386Z,76.03
2017-10-15T10:04:07.409Z,79.17
2017-10-15T10:06:33.719Z,64.90
2017-10-15T10:09:00.055Z,61.57
2017-10-15T10:11:26.308Z,68.90
2017-10-15T10:13:52.554Z,61.93
2017-10-15T10:16:20.342Z,66.83
2017-10-15T10:18:46.599Z,91.23
2017-10-15T10:21:12.906Z,81.13
2017-10-15T10:23:40.675Z,77.93
2017-10-15T10:26:07.707Z,77.10
2017-10-15T10:28:34.009Z,70.80
2017-10-15T10:31:01.110Z,74.93
2017-10-15T10:33:28.114Z,62.03
2017-10-15T10:35:54.379Z,72.27
2017-10-15T10:38:20.650Z,74.03
2017-10-15T10:40:47.671Z,77.70
2017-10-15T10:43:13.925Z,80.97
2017-10-15T10:45:40.983Z,63.30
2017-10-15T10:48:07.999Z,78.57
2017-10-15T10:50:34.297Z,85.80
2017-10-15T10:53:00.771Z,77.40
2017-10-15T10:55:27.039Z,86.33
2017-10-15T10:57:53.299Z,79.60
2017-10-15T11:00:20.480Z,69.33
2017-10-15T11:02:46.752Z,69.30
2017-10-15T11:05:13.767Z,72.30
2017-10-15T11:07:40.136Z,58.97
2017-10-15T11:10:06.403Z,75.30
2017-10-15T11:12:32.663Z,66.67
2017-10-15T11:14:58.986Z,61.50
2017-10-15T11:17:25.251Z,64.37
2017-10-15T11:19:51.506Z,61.67
2017-10-15T11:22:17.794Z,51.20
2017-10-15T11:24:44.802Z,57.47
2017-10-15T11:27:11.096Z,53.50
2017-10-15T11:29:37.358Z,52.23
2017-10-15T11:32:03.620Z,49.50
2017-10-15T11:34:29.864Z,50.63
2017-10-15T11:36:56.950Z,51.40
2017-10-15T11:39:23.215Z,49.50
2017-10-15T11:41:49.482Z,48.90
2017-10-15T11:44:15.772Z,45.17
2017-10-15T11:46:42.026Z,47.40
2017-10-15T11:49:08.290Z,53.70
2017-10-15T11:51:35.348Z,49.93
2017-10-15T11:54:01.736Z,54.80
2017-10-15T11:56:28.066Z,46.90
2017-10-15T11:58:54.386Z,40.50
2017-10-15T12:01:21.411Z,43.43
2017-10-15T12:03:48.437Z,34.50
2017-10-15T12:06:14.819Z,27.10
2017-10-15T12:08:41.247Z,23.53
2017-10-15T12:11:07.530Z,25.03
2017-10-15T12:13:33.842Z,24.70
2017-10-15T12:16:00.125Z,17.37
2017-10-15T12:18:26.423Z,17.27
2017-10-15T12:20:52.844Z,17.53
2017-10-15T12:23:19.854Z,17.57
2017-10-15T12:25:46.903Z,10.93
2017-10-15T12:28:13.239Z,13.67
2017-10-15T12:30:39.539Z,15.70
2017-10-15T12:33:05.839Z,10.20
2017-10-15T12:35:32.167Z,11.00
2017-10-15T12:37:58.435Z,13.30
2017-10-15T12:40:24.763Z,11.40
2017-10-15T12:42:51.896Z,12.53
2017-10-15T12:45:18.976Z,10.83
2017-10-15T12:47:45.501Z,10.63
2017-10-15T12:50:11.905Z,17.13
2017-10-15T12:52:38.162Z,9.13
2017-10-15T12:55:05.405Z,10.33
2017-10-15T12:57:31.719Z,10.40
2017-10-15T12:59:58.018Z,9.33
2017-10-15T13:02:25.042Z,13.40
2017-10-15T13:04:51.352Z,9.37
2017-10-15T13:07:17.634Z,10.67
2017-10-15T13:09:43.883Z,11.50
2017-10-15T13:12:11.162Z,9.63
2017-10-15T13:14:37.447Z,12.77
2017-10-15T13:17:03.741Z,6.30
2017-10-15T13:19:30.029Z,7.63
2017-10-15T13:21:57.048Z,8.83
2017-10-15T13:24:23.328Z,9.93
2017-10-15T13:26:50.379Z,7.93
2017-10-15T13:29:16.661Z,9.63
2017-10-15T13:31:42.927Z,6.87
2017-10-15T13:34:09.197Z,8.17
2017-10-15T13:36:36.220Z,6.10
2017-10-15T13:39:02.516Z,6.27
2017-10-15T13:41:28.807Z,6.03
2017-10-15T13:43:55.091Z,6.37
2017-10-15T13:46:21.337Z,5.37
2017-10-15T13:48:47.751Z,6.40
2017-10-15T13:51:14.081Z,6.83
2017-10-15T13:53:40.372Z,7.73
2017-10-15T13:56:06.753Z,12.23
2017-10-15T13:58:33.034Z,13.70
2017-10-15T14:00:59.334Z,5.70
2017-10-15T14:03:25.620Z,9.37
2017-10-15T14:05:51.878Z,13.13
2017-10-15T14:08:18.907Z,12.50
2017-10-15T14:10:45.168Z,9.93
2017-10-15T14:13:12.175Z,8.40
2017-10-15T14:15:38.430Z,8.63
2017-10-15T14:18:04.818Z,13.67
2017-10-15T14:20:31.102Z,5.77
2017-10-15T14:22:57.404Z,6.30
2017-10-15T14:25:23.720Z,10.83
2017-10-15T14:27:50.002Z,8.60
2017-10-15T14:30:16.286Z,6.67
2017-10-15T14:32:42.746Z,10.33
2017-10-15T14:35:09.023Z,6.47
2017-10-15T14:37:35.308Z,6.30
2017-10-15T14:40:01.625Z,9.97
2017-10-15T14:42:27.904Z,7.17
2017-10-15T14:44:54.167Z,8.70
2017-10-15T14:47:20.466Z,6.23
2017-10-15T14:49:46.747Z,8.10
2017-10-15T14:52:13.012Z,10.23
2017-10-15T14:54:39.431Z,8.97
2017-10-15T14:57:05.891Z,10.00
2017-10-15T14:59:32.148Z,7.60
2017-10-15T15:01:58.427Z,6.33
2017-10-15T15:04:24.706Z,7.70
2017-10-15T15:06:50.995Z,11.00
2017-10-15T15:09:17.378Z,6.57
2017-10-15T15:11:43.727Z,10.00
2017-10-15T15:14:09.983Z,14.13
2017-10-15T15:16:36.268Z,8.30
2017-10-15T15:19:03.259Z,11.03
2017-10-15T15:21:29.531Z,8.87
2017-10-15T15:23:55.843Z,7.40
2017-10-15T15:26:22.143Z,8.23
2017-10-15T15:28:48.419Z,9.90
2017-10-15T15:31:14.691Z,8.47
2017-10-15T15:33:40.984Z,9.87
2017-10-15T15:36:07.247Z,12.37
2017-10-15T15:38:34.328Z,22.93
2017-10-15T15:41:00.643Z,9.20
2017-10-15T15:43:26.899Z,9.20
2017-10-15T15:45:53.938Z,9.00
2017-10-15T15:48:20.223Z,6.90
2017-10-15T15:50:46.495Z,9.20
2017-10-15T15:53:12.788Z,8.30
2017-10-15T15:55:39.917Z,10.03
2017-10-15T15:58:06.470Z,12.90
2017-10-15T16:00:32.768Z,8.03
2017-10-15T16:02:59.018Z,7.87
2017-10-15T16:05:25.286Z,8.83
2017-10-15T16:07:51.587Z,8.63
2017-10-15T16:10:18.594Z,9.20
2017-10-15T16:12:44.851Z,9.17
2017-10-15T16:15:11.161Z,11.87
2017-10-15T16:17:37.415Z,17.93
2017-10-15T16:20:03.698Z,10.07
2017-10-15T16:22:30.718Z,8.93
2017-10-15T16:24:56.998Z,8.33
2017-10-15T16:27:23.266Z,7.57
2017-10-15T16:29:49.577Z,7.40
2017-10-15T16:32:15.814Z,8.00
2017-10-15T16:34:42.110Z,11.90
2017-10-15T16:37:09.156Z,8.90
2017-10-15T16:39:36.146Z,11.90
2017-10-15T16:42:02.437Z,14.23
2017-10-15T16:44:28.715Z,21.60
2017-10-15T16:46:54.998Z,13.63
2017-10-15T16:49:21.242Z,13.10
2017-10-15T16:51:47.531Z,11.30
2017-10-15T16:54:13.934Z,14.00
2017-10-15T16:56:40.954Z,21.90
2017-10-15T16:59:07.336Z,18.70
2017-10-15T17:01:33.615Z,14.90
2017-10-15T17:03:59.882Z,22.60
2017-10-15T17:06:27.184Z,15.67
2017-10-15T17:08:53.434Z,14.10
2017-10-15T17:11:19.704Z,18.47
2017-10-15T17:13:46.020Z,18.57
2017-10-15T17:16:12.279Z,11.10
2017-10-15T17:18:38.541Z,9.77
2017-10-15T17:21:05.702Z,20.70
2017-10-15T17:23:32.002Z,58.07
2017-10-15T17:26:07.222Z,20.40
2017-10-15T17:28:33.472Z,65.60
2017-10-15T17:30:59.770Z,60.33
2017-10-15T17:33:26.208Z,91.43
2017-10-15T17:35:52.813Z,33.10
2017-10-15T17:38:19.127Z,22.27
2017-10-15T17:40:45.515Z,58.47
2017-10-15T17:43:11.798Z,102.83
2017-10-15T17:45:38.827Z,62.90
2017-10-15T17:48:05.150Z,56.90
2017-10-15T17:50:31.416Z,79.90
2017-10-15T17:52:57.662Z,38.70
2017-10-15T17:55:24.001Z,40.27
2017-10-15T17:57:51.010Z,39.07
2017-10-15T18:00:17.427Z,42.70
2017-10-15T18:02:44.476Z,50.07
2017-10-15T18:05:11.469Z,88.83
2017-10-15T18:07:37.818Z,43.43
2017-10-15T18:10:04.291Z,49.07
2017-10-15T18:12:31.328Z,38.00
2017-10-15T18:14:57.566Z,22.37
2017-10-15T18:17:23.843Z,17.30
2017-10-15T18:19:50.131Z,13.60
2017-10-15T18:22:17.203Z,11.97
2017-10-15T18:24:44.248Z,15.93
2017-10-15T18:27:10.571Z,12.10
2017-10-15T18:29:36.905Z,12.47
2017-10-15T18:32:03.953Z,10.50
2017-10-15T18:34:30.228Z,15.00
2017-10-15T18:36:57.239Z,11.57
2017-10-15T18:39:23.512Z,11.80
2017-10-15T18:41:50.549Z,11.67
2017-10-15T18:44:16.829Z,10.03
2017-10-15T18:46:43.165Z,12.73
2017-10-15T18:49:09.431Z,16.07
2017-10-15T18:51:35.740Z,14.40
2017-10-15T18:54:02.042Z,11.53
2017-10-15T18:56:29.290Z,11.00
2017-10-15T18:58:56.340Z,13.77
2017-10-15T19:01:24.412Z,9.70
2017-10-15T19:03:50.712Z,9.70
2017-10-15T19:06:17.146Z,19.23
2017-10-15T19:08:43.480Z,11.33
2017-10-15T19:11:09.771Z,11.93
2017-10-15T19:13:36.786Z,13.87
2017-10-15T19:16:03.111Z,10.00
2017-10-15T19:18:29.445Z,11.00
2017-10-15T19:20:55.755Z,10.43
2017-10-15T19:23:22.063Z,10.93
2017-10-15T19:25:49.097Z,17.13
2017-10-15T19:28:15.374Z,26.17
2017-10-15T19:30:42.417Z,28.70
2017-10-15T19:35:29.903Z,13.20
2017-10-15T19:37:56.195Z,12.77
2017-10-15T19:40:22.467Z,10.97
2017-10-15T19:42:48.731Z,10.00
2017-10-15T19:45:15.000Z,8.97
2017-10-15T19:47:41.270Z,11.10
2017-10-15T19:50:07.551Z,13.17
2017-10-15T19:52:33.833Z,10.90
2017-10-15T19:55:00.807Z,10.40
2017-10-15T19:57:27.055Z,9.97
2017-10-15T19:59:53.310Z,15.63
2017-10-15T20:02:20.018Z,13.20
2017-10-15T20:04:46.264Z,10.60
2017-10-15T20:07:12.545Z,10.33
2017-10-15T20:09:39.546Z,10.20
2017-10-15T20:12:05.815Z,9.00
2017-10-15T20:14:32.079Z,9.77
2017-10-15T20:16:58.343Z,11.33
2017-10-15T20:19:24.593Z,10.20
2017-10-15T20:21:50.874Z,11.70
2017-10-15T20:24:17.879Z,8.60
2017-10-15T20:26:44.127Z,14.47
2017-10-15T20:29:10.406Z,10.20
2017-10-15T20:31:36.684Z,11.70
2017-10-15T20:34:02.945Z,10.53
2017-10-15T20:36:29.214Z,10.77
2017-10-15T20:38:56.199Z,14.63
2017-10-15T20:41:22.451Z,11.20
2017-10-15T20:43:48.715Z,12.27
2017-10-15T20:46:14.951Z,13.80
2017-10-15T20:48:41.955Z,11.67
2017-10-15T20:51:08.230Z,10.47
2017-10-15T20:53:34.491Z,11.27
2017-10-15T20:56:00.735Z,11.30
2017-10-15T20:58:27.739Z,18.63
2017-10-15T21:00:53.989Z,11.57
2017-10-15T21:03:20.350Z,11.87
2017-10-15T21:05:46.615Z,11.17
2017-10-15T21:08:12.888Z,13.17
2017-10-15T21:10:39.124Z,15.20
2017-10-15T21:13:05.403Z,13.67
2017-10-15T21:15:31.691Z,12.50
2017-10-15T21:17:57.942Z,12.40
2017-10-15T21:20:24.218Z,13.60
2017-10-15T21:22:50.498Z,12.63
2017-10-15T21:25:16.763Z,12.00
2017-10-15T21:30:16.055Z,13.43
2017-10-15T21:32:42.298Z,13.10
2017-10-15T21:35:08.579Z,17.00
2017-10-15T21:37:34.894Z,10.90
2017-10-15T21:40:01.906Z,18.43
2017-10-15T21:42:28.217Z,15.40
2017-10-15T21:44:54.472Z,12.07
2017-10-15T21:47:20.769Z,15.03
2017-10-15T21:49:47.801Z,11.90
2017-10-15T21:52:14.052Z,15.40
2017-10-15T21:54:41.058Z,16.33
2017-10-15T21:57:07.334Z,11.47
2017-10-15T21:59:34.345Z,12.93
2017-10-15T22:02:00.626Z,14.70
2017-10-15T22:04:27.091Z,11.57
2017-10-15T22:06:53.359Z,18.30
2017-10-15T22:09:19.619Z,22.43
2017-10-15T22:11:45.894Z,24.30
2017-10-15T22:14:12.143Z,14.17
2017-10-15T22:16:38.408Z,12.20
2017-10-15T22:19:04.715Z,14.10
2017-10-15T22:21:36.974Z,20.03
2017-10-15T22:24:03.243Z,12.23
2017-10-15T22:26:29.536Z,14.13
2017-10-15T22:28:56.515Z,16.27
2017-10-15T22:31:22.767Z,21.33
2017-10-15T22:33:49.043Z,13.10
2017-10-15T22:36:15.304Z,12.63
2017-10-15T22:38:41.571Z,15.33
2017-10-15T22:41:07.877Z,14.63
2017-10-15T22:43:34.168Z,13.57
2017-10-15T22:46:01.163Z,14.87
2017-10-15T22:48:34.466Z,11.57
2017-10-15T22:51:00.771Z,11.87
2017-10-15T22:53:27.035Z,10.57
2017-10-15T22:55:53.328Z,12.73
2017-10-15T22:58:19.597Z,11.80
2017-10-15T23:00:45.860Z,11.50
2017-10-15T23:03:12.152Z,20.07
2017-10-15T23:05:39.311Z,26.90
2017-10-15T23:08:06.317Z,34.47
2017-10-15T23:10:32.619Z,45.63
2017-10-15T23:12:58.872Z,16.30
2017-10-15T23:15:25.118Z,23.77
2017-10-15T23:17:51.419Z,18.50
2017-10-15T23:20:17.680Z,18.60
2017-10-15T23:22:43.942Z,12.37
2017-10-15T23:25:10.212Z,11.87
2017-10-15T23:27:37.203Z,14.50
2017-10-15T23:30:03.448Z,18.67
2017-10-15T23:32:29.746Z,18.10
2017-10-15T23:34:55.993Z,12.10
2017-10-15T23:37:22.259Z,14.40
2017-10-15T23:39:48.519Z,11.53
2017-10-15T23:42:14.796Z,14.60
2017-10-15T23:44:41.050Z,11.27
2017-10-15T23:47:07.335Z,11.23
2017-10-15T23:49:34.326Z,12.63
2017-10-15T23:52:00.574Z,15.33
2017-10-15T23:54:26.859Z,16.30
2017-10-15T23:56:53.862Z,17.37
2017-10-15T23:59:20.112Z,15.53
